sensor_id;sensor_type;location;lat;lon;timestamp;pressure;altitude;pressure_sealevel;temperature;humidity
45541;BME280;31265;49.680;8.608;2024-03-07T00:00:15;101236.97;;;5.39;100.00
45541;BME280;31265;49.680;8.608;2024-03-07T00:02:46;101237.00;;;5.28;100.00
45541;BME280;31265;49.680;8.608;2024-03-07T00:05:16;101242.00;;;5.12;100.00
45541;BME280;31265;49.680;8.608;2024-03-07T00:07:45;101240.28;;;4.98;100.00
45541;BME280;31265;49.680;8.608;2024-03-07T00:10:14;101241.03;;;4.87;100.00
45541;BME280;31265;49.680;8.608;2024-03-07T00:12:45;101239.53;;;4.81;100.00
45541;BME280;31265;49.680;8.608;2024-03-07T00:15:15;101244.50;;;4.65;100.00
45541;BME280;31265;49.680;8.608;2024-03-07T00:17:45;101247.50;;;4.50;100.00
45541;BME280;31265;49.680;8.608;2024-03-07T00:20:13;101247.72;;;4.41;100.00
45541;BME280;31265;49.680;8.608;2024-03-07T00:22:47;101255.91;;;4.30;100.00
45541;BME280;31265;49.680;8.608;2024-03-07T00:25:16;101257.16;;;4.23;100.00
45541;BME280;31265;49.680;8.608;2024-03-07T00:27:49;101251.63;;;4.12;100.00
45541;BME280;31265;49.680;8.608;2024-03-07T00:30:20;101255.34;;;4.03;100.00
45541;BME280;31265;49.680;8.608;2024-03-07T00:32:49;101259.34;;;4.02;100.00
45541;BME280;31265;49.680;8.608;2024-03-07T00:35:18;101254.84;;;3.99;100.00
45541;BME280;31265;49.680;8.608;2024-03-07T00:37:48;101256.03;;;3.93;100.00
45541;BME280;31265;49.680;8.608;2024-03-07T00:40:16;101253.03;;;3.85;100.00
45541;BME280;31265;49.680;8.608;2024-03-07T00:42:44;101249.72;;;3.75;100.00
45541;BME280;31265;49.680;8.608;2024-03-07T00:45:14;101258.66;;;3.64;100.00
45541;BME280;31265;49.680;8.608;2024-03-07T00:47:44;101244.13;;;3.53;100.00
45541;BME280;31265;49.680;8.608;2024-03-07T00:50:12;101253.34;;;3.50;100.00
45541;BME280;31265;49.680;8.608;2024-03-07T00:52:41;101245.31;;;3.46;100.00
45541;BME280;31265;49.680;8.608;2024-03-07T00:55:09;101257.00;;;3.35;100.00
45541;BME280;31265;49.680;8.608;2024-03-07T00:57:38;101252.47;;;3.27;100.00
45541;BME280;31265;49.680;8.608;2024-03-07T01:00:07;101249.16;;;3.17;100.00
45541;BME280;31265;49.680;8.608;2024-03-07T01:02:42;101252.06;;;3.08;100.00
45541;BME280;31265;49.680;8.608;2024-03-07T01:05:12;101248.31;;;3.05;100.00
45541;BME280;31265;49.680;8.608;2024-03-07T01:07:42;101257.22;;;2.94;100.00
45541;BME280;31265;49.680;8.608;2024-03-07T01:10:13;101253.44;;;2.92;100.00
45541;BME280;31265;49.680;8.608;2024-03-07T01:12:43;101259.88;;;2.89;100.00
45541;BME280;31265;49.680;8.608;2024-03-07T01:15:11;101268.84;;;2.89;100.00
45541;BME280;31265;49.680;8.608;2024-03-07T01:17:43;101267.59;;;2.85;100.00
45541;BME280;31265;49.680;8.608;2024-03-07T01:20:13;101271.81;;;2.86;100.00
45541;BME280;31265;49.680;8.608;2024-03-07T01:22:41;101261.13;;;2.88;100.00
45541;BME280;31265;49.680;8.608;2024-03-07T01:25:10;101261.34;;;2.84;100.00
45541;BME280;31265;49.680;8.608;2024-03-07T01:27:39;101262.31;;;2.81;100.00
45541;BME280;31265;49.680;8.608;2024-03-07T01:30:08;101267.31;;;2.83;100.00
45541;BME280;31265;49.680;8.608;2024-03-07T01:32:36;101268.97;;;2.74;100.00
45541;BME280;31265;49.680;8.608;2024-03-07T01:35:07;101261.22;;;2.67;100.00
45541;BME280;31265;49.680;8.608;2024-03-07T01:37:36;101263.72;;;2.71;100.00
45541;BME280;31265;49.680;8.608;2024-03-07T01:40:06;101256.47;;;2.68;100.00
45541;BME280;31265;49.680;8.608;2024-03-07T01:42:35;101261.41;;;2.64;100.00
45541;BME280;31265;49.680;8.608;2024-03-07T01:45:04;101258.78;;;2.75;100.00
45541;BME280;31265;49.680;8.608;2024-03-07T01:47:32;101255.84;;;2.84;100.00
45541;BME280;31265;49.680;8.608;2024-03-07T01:50:01;101260.50;;;2.72;100.00
45541;BME280;31265;49.680;8.608;2024-03-07T01:52:31;101247.16;;;2.59;100.00
45541;BME280;31265;49.680;8.608;2024-03-07T01:55:00;101247.81;;;2.49;100.00
45541;BME280;31265;49.680;8.608;2024-03-07T01:57:29;101245.56;;;2.47;100.00
45541;BME280;31265;49.680;8.608;2024-03-07T01:59:58;101241.59;;;2.48;100.00
45541;BME280;31265;49.680;8.608;2024-03-07T02:02:32;101241.47;;;2.37;100.00
45541;BME280;31265;49.680;8.608;2024-03-07T02:05:01;101244.44;;;2.33;100.00
45541;BME280;31265;49.680;8.608;2024-03-07T02:07:31;101241.78;;;2.19;100.00
45541;BME280;31265;49.680;8.608;2024-03-07T02:10:00;101243.22;;;2.14;100.00
45541;BME280;31265;49.680;8.608;2024-03-07T02:12:28;101240.34;;;2.03;100.00
45541;BME280;31265;49.680;8.608;2024-03-07T02:14:58;101239.25;;;1.94;100.00
45541;BME280;31265;49.680;8.608;2024-03-07T02:17:27;101249.75;;;1.96;100.00
45541;BME280;31265;49.680;8.608;2024-03-07T02:19:55;101240.69;;;1.90;100.00
45541;BME280;31265;49.680;8.608;2024-03-07T02:22:26;101239.13;;;1.83;100.00
45541;BME280;31265;49.680;8.608;2024-03-07T02:24:54;101236.88;;;1.82;100.00
45541;BME280;31265;49.680;8.608;2024-03-07T02:27:22;101235.84;;;1.79;100.00
45541;BME280;31265;49.680;8.608;2024-03-07T02:29:51;101237.84;;;1.79;100.00
45541;BME280;31265;49.680;8.608;2024-03-07T02:32:19;101237.00;;;1.72;100.00
45541;BME280;31265;49.680;8.608;2024-03-07T02:34:49;101231.69;;;1.63;100.00
45541;BME280;31265;49.680;8.608;2024-03-07T02:37:17;101232.41;;;1.64;100.00
45541;BME280;31265;49.680;8.608;2024-03-07T02:39:47;101233.09;;;1.59;100.00
45541;BME280;31265;49.680;8.608;2024-03-07T02:42:15;101233.00;;;1.53;100.00
45541;BME280;31265;49.680;8.608;2024-03-07T02:44:43;101233.56;;;1.57;100.00
45541;BME280;31265;49.680;8.608;2024-03-07T02:47:12;101230.94;;;1.48;100.00
45541;BME280;31265;49.680;8.608;2024-03-07T02:49:40;101238.69;;;1.49;100.00
45541;BME280;31265;49.680;8.608;2024-03-07T02:52:08;101227.63;;;1.59;100.00
45541;BME280;31265;49.680;8.608;2024-03-07T02:54:37;101227.81;;;1.55;100.00
45541;BME280;31265;49.680;8.608;2024-03-07T02:57:07;101233.97;;;1.50;100.00
45541;BME280;31265;49.680;8.608;2024-03-07T02:59:35;101230.69;;;1.46;100.00
45541;BME280;31265;49.680;8.608;2024-03-07T03:02:04;101229.56;;;1.38;100.00
45541;BME280;31265;49.680;8.608;2024-03-07T03:04:33;101224.03;;;1.32;100.00
45541;BME280;31265;49.680;8.608;2024-03-07T03:07:01;101218.00;;;1.28;100.00
45541;BME280;31265;49.680;8.608;2024-03-07T03:09:30;101222.16;;;1.23;100.00
45541;BME280;31265;49.680;8.608;2024-03-07T03:12:00;101224.53;;;1.16;100.00
45541;BME280;31265;49.680;8.608;2024-03-07T03:14:30;101224.66;;;1.06;100.00
45541;BME280;31265;49.680;8.608;2024-03-07T03:16:58;101219.56;;;0.99;100.00
45541;BME280;31265;49.680;8.608;2024-03-07T03:19:27;101214.28;;;0.96;100.00
45541;BME280;31265;49.680;8.608;2024-03-07T03:21:55;101221.00;;;0.95;100.00
45541;BME280;31265;49.680;8.608;2024-03-07T03:24:23;101229.19;;;0.95;100.00
45541;BME280;31265;49.680;8.608;2024-03-07T03:26:52;101215.53;;;0.95;100.00
45541;BME280;31265;49.680;8.608;2024-03-07T03:29:21;101214.38;;;0.86;100.00
45541;BME280;31265;49.680;8.608;2024-03-07T03:31:51;101215.06;;;0.81;100.00
45541;BME280;31265;49.680;8.608;2024-03-07T03:34:19;101217.91;;;0.72;100.00
45541;BME280;31265;49.680;8.608;2024-03-07T03:36:48;101214.59;;;0.68;100.00
45541;BME280;31265;49.680;8.608;2024-03-07T03:39:16;101215.06;;;0.67;100.00
45541;BME280;31265;49.680;8.608;2024-03-07T03:41:47;101215.53;;;0.65;100.00
45541;BME280;31265;49.680;8.608;2024-03-07T03:44:16;101211.97;;;0.59;100.00
45541;BME280;31265;49.680;8.608;2024-03-07T03:46:45;101210.38;;;0.52;100.00
45541;BME280;31265;49.680;8.608;2024-03-07T03:49:15;101207.34;;;0.50;100.00
45541;BME280;31265;49.680;8.608;2024-03-07T03:51:43;101207.63;;;0.52;100.00
45541;BME280;31265;49.680;8.608;2024-03-07T03:54:14;101207.81;;;0.49;100.00
45541;BME280;31265;49.680;8.608;2024-03-07T03:56:43;101210.53;;;0.49;100.00
45541;BME280;31265;49.680;8.608;2024-03-07T03:59:12;101213.56;;;0.51;100.00
45541;BME280;31265;49.680;8.608;2024-03-07T04:01:40;101213.28;;;0.49;100.00
45541;BME280;31265;49.680;8.608;2024-03-07T04:04:09;101214.59;;;0.38;100.00
45541;BME280;31265;49.680;8.608;2024-03-07T04:06:38;101219.75;;;0.36;100.00
45541;BME280;31265;49.680;8.608;2024-03-07T04:09:07;101222.97;;;0.35;100.00
45541;BME280;31265;49.680;8.608;2024-03-07T04:11:36;101217.97;;;0.33;100.00
45541;BME280;31265;49.680;8.608;2024-03-07T04:14:05;101212.41;;;0.28;100.00
45541;BME280;31265;49.680;8.608;2024-03-07T04:16:33;101214.84;;;0.26;100.00
45541;BME280;31265;49.680;8.608;2024-03-07T04:19:02;101220.31;;;0.26;100.00
45541;BME280;31265;49.680;8.608;2024-03-07T04:21:30;101220.03;;;0.24;100.00
45541;BME280;31265;49.680;8.608;2024-03-07T04:24:00;101211.84;;;0.24;100.00
45541;BME280;31265;49.680;8.608;2024-03-07T04:26:29;101213.53;;;0.21;100.00
45541;BME280;31265;49.680;8.608;2024-03-07T04:28:58;101207.31;;;0.20;100.00
45541;BME280;31265;49.680;8.608;2024-03-07T04:31:26;101210.72;;;0.15;100.00
45541;BME280;31265;49.680;8.608;2024-03-07T04:33:54;101216.31;;;0.12;100.00
45541;BME280;31265;49.680;8.608;2024-03-07T04:36:23;101220.75;;;0.09;100.00
45541;BME280;31265;49.680;8.608;2024-03-07T04:38:51;101215.47;;;0.06;100.00
45541;BME280;31265;49.680;8.608;2024-03-07T04:41:21;101216.97;;;0.07;100.00
45541;BME280;31265;49.680;8.608;2024-03-07T04:43:50;101211.22;;;0.05;100.00
45541;BME280;31265;49.680;8.608;2024-03-07T04:46:18;101212.28;;;0.07;100.00
45541;BME280;31265;49.680;8.608;2024-03-07T04:48:47;101210.78;;;0.06;100.00
45541;BME280;31265;49.680;8.608;2024-03-07T04:51:16;101220.66;;;0.04;100.00
45541;BME280;31265;49.680;8.608;2024-03-07T04:53:44;101217.34;;;-0.01;100.00
45541;BME280;31265;49.680;8.608;2024-03-07T04:56:12;101207.66;;;-0.02;100.00
45541;BME280;31265;49.680;8.608;2024-03-07T04:58:42;101206.41;;;-0.01;100.00
45541;BME280;31265;49.680;8.608;2024-03-07T05:01:11;101207.66;;;-0.02;100.00
45541;BME280;31265;49.680;8.608;2024-03-07T05:03:40;101218.91;;;-0.09;100.00
45541;BME280;31265;49.680;8.608;2024-03-07T05:06:09;101212.88;;;-0.13;100.00
45541;BME280;31265;49.680;8.608;2024-03-07T05:08:37;101213.22;;;-0.20;100.00
45541;BME280;31265;49.680;8.608;2024-03-07T05:11:06;101220.38;;;-0.23;100.00
45541;BME280;31265;49.680;8.608;2024-03-07T05:13:35;101222.06;;;-0.25;100.00
45541;BME280;31265;49.680;8.608;2024-03-07T05:16:06;101213.88;;;-0.25;100.00
45541;BME280;31265;49.680;8.608;2024-03-07T05:18:34;101212.72;;;-0.33;100.00
45541;BME280;31265;49.680;8.608;2024-03-07T05:21:03;101216.38;;;-0.36;100.00
45541;BME280;31265;49.680;8.608;2024-03-07T05:23:51;101212.63;;;-0.39;100.00
45541;BME280;31265;49.680;8.608;2024-03-07T05:26:20;101211.09;;;-0.40;100.00
45541;BME280;31265;49.680;8.608;2024-03-07T05:28:48;101203.53;;;-0.45;100.00
45541;BME280;31265;49.680;8.608;2024-03-07T05:31:18;101204.94;;;-0.50;100.00
45541;BME280;31265;49.680;8.608;2024-03-07T05:33:47;101210.38;;;-0.50;100.00
45541;BME280;31265;49.680;8.608;2024-03-07T05:36:16;101202.22;;;-0.50;100.00
45541;BME280;31265;49.680;8.608;2024-03-07T05:38:44;101202.69;;;-0.51;100.00
45541;BME280;31265;49.680;8.608;2024-03-07T05:41:13;101208.13;;;-0.51;100.00
45541;BME280;31265;49.680;8.608;2024-03-07T05:43:41;101210.56;;;-0.53;100.00
45541;BME280;31265;49.680;8.608;2024-03-07T05:46:11;101203.31;;;-0.56;100.00
45541;BME280;31265;49.680;8.608;2024-03-07T05:48:41;101205.56;;;-0.55;100.00
45541;BME280;31265;49.680;8.608;2024-03-07T05:51:09;101210.75;;;-0.57;100.00
45541;BME280;31265;49.680;8.608;2024-03-07T05:53:38;101202.72;;;-0.60;100.00
45541;BME280;31265;49.680;8.608;2024-03-07T05:56:10;101204.72;;;-0.61;100.00
45541;BME280;31265;49.680;8.608;2024-03-07T05:58:38;101200.47;;;-0.62;100.00
45541;BME280;31265;49.680;8.608;2024-03-07T06:01:07;101208.47;;;-0.58;100.00
45541;BME280;31265;49.680;8.608;2024-03-07T06:03:37;101207.44;;;-0.61;100.00
45541;BME280;31265;49.680;8.608;2024-03-07T06:06:09;101204.72;;;-0.61;100.00
45541;BME280;31265;49.680;8.608;2024-03-07T06:08:38;101205.16;;;-0.62;100.00
45541;BME280;31265;49.680;8.608;2024-03-07T06:11:09;101207.59;;;-0.65;100.00
45541;BME280;31265;49.680;8.608;2024-03-07T06:13:38;101205.63;;;-0.64;100.00
45541;BME280;31265;49.680;8.608;2024-03-07T06:16:06;101215.63;;;-0.61;100.00
45541;BME280;31265;49.680;8.608;2024-03-07T06:18:34;101213.75;;;-0.55;100.00
45541;BME280;31265;49.680;8.608;2024-03-07T06:21:03;101211.63;;;-0.51;100.00
45541;BME280;31265;49.680;8.608;2024-03-07T06:23:35;101206.56;;;-0.43;100.00
45541;BME280;31265;49.680;8.608;2024-03-07T06:26:04;101208.50;;;-0.34;100.00
45541;BME280;31265;49.680;8.608;2024-03-07T06:28:41;101213.59;;;-0.27;100.00
45541;BME280;31265;49.680;8.608;2024-03-07T06:31:09;101219.91;;;-0.21;100.00
45541;BME280;31265;49.680;8.608;2024-03-07T06:33:38;101210.16;;;-0.13;100.00
45541;BME280;31265;49.680;8.608;2024-03-07T06:36:07;101212.72;;;-0.09;100.00
45541;BME280;31265;49.680;8.608;2024-03-07T06:38:37;101209.63;;;-0.02;100.00
45541;BME280;31265;49.680;8.608;2024-03-07T06:41:06;101211.22;;;0.05;100.00
45541;BME280;31265;49.680;8.608;2024-03-07T06:43:37;101205.81;;;0.19;100.00
45541;BME280;31265;49.680;8.608;2024-03-07T06:46:07;101204.31;;;0.33;100.00
45541;BME280;31265;49.680;8.608;2024-03-07T06:48:36;101197.94;;;0.51;100.00
45541;BME280;31265;49.680;8.608;2024-03-07T06:51:04;101210.38;;;0.67;100.00
45541;BME280;31265;49.680;8.608;2024-03-07T06:53:33;101206.19;;;0.86;100.00
45541;BME280;31265;49.680;8.608;2024-03-07T06:56:03;101209.41;;;1.00;100.00
45541;BME280;31265;49.680;8.608;2024-03-07T06:58:33;101210.13;;;1.15;100.00
45541;BME280;31265;49.680;8.608;2024-03-07T07:01:01;101209.69;;;1.37;100.00
45541;BME280;31265;49.680;8.608;2024-03-07T07:03:35;101206.44;;;1.54;100.00
45541;BME280;31265;49.680;8.608;2024-03-07T07:06:04;101204.16;;;1.72;100.00
45541;BME280;31265;49.680;8.608;2024-03-07T07:08:34;101211.44;;;1.76;100.00
45541;BME280;31265;49.680;8.608;2024-03-07T07:11:04;101205.00;;;1.79;100.00
45541;BME280;31265;49.680;8.608;2024-03-07T07:13:32;101217.16;;;1.78;100.00
45541;BME280;31265;49.680;8.608;2024-03-07T07:16:01;101212.25;;;1.82;100.00
45541;BME280;31265;49.680;8.608;2024-03-07T07:18:29;101203.63;;;1.89;100.00
45541;BME280;31265;49.680;8.608;2024-03-07T07:20:58;101204.97;;;1.99;100.00
45541;BME280;31265;49.680;8.608;2024-03-07T07:23:30;101200.31;;;2.05;100.00
45541;BME280;31265;49.680;8.608;2024-03-07T07:26:00;101209.91;;;2.15;100.00
45541;BME280;31265;49.680;8.608;2024-03-07T07:28:31;101211.59;;;2.39;100.00
45541;BME280;31265;49.680;8.608;2024-03-07T07:31:00;101210.00;;;2.53;100.00
45541;BME280;31265;49.680;8.608;2024-03-07T07:33:29;101198.06;;;2.82;100.00
45541;BME280;31265;49.680;8.608;2024-03-07T07:35:58;101200.16;;;2.98;100.00
45541;BME280;31265;49.680;8.608;2024-03-07T07:38:28;101195.03;;;3.12;100.00
45541;BME280;31265;49.680;8.608;2024-03-07T07:40:57;101195.03;;;3.12;100.00
45541;BME280;31265;49.680;8.608;2024-03-07T07:43:26;101204.13;;;2.97;100.00
45541;BME280;31265;49.680;8.608;2024-03-07T07:46:10;101196.69;;;3.04;100.00
45541;BME280;31265;49.680;8.608;2024-03-07T07:48:38;101188.44;;;2.98;100.00
45541;BME280;31265;49.680;8.608;2024-03-07T07:51:08;101190.47;;;3.03;100.00
45541;BME280;31265;49.680;8.608;2024-03-07T07:53:38;101184.06;;;3.12;100.00
45541;BME280;31265;49.680;8.608;2024-03-07T07:56:07;101191.34;;;3.26;100.00
45541;BME280;31265;49.680;8.608;2024-03-07T07:58:36;101194.88;;;3.32;100.00
45541;BME280;31265;49.680;8.608;2024-03-07T08:01:05;101188.53;;;3.58;100.00
45541;BME280;31265;49.680;8.608;2024-03-07T08:03:36;101191.31;;;3.69;100.00
45541;BME280;31265;49.680;8.608;2024-03-07T08:06:05;101194.09;;;3.80;100.00
45541;BME280;31265;49.680;8.608;2024-03-07T08:08:33;101190.72;;;4.08;100.00
45541;BME280;31265;49.680;8.608;2024-03-07T08:11:03;101184.44;;;4.07;100.00
45541;BME280;31265;49.680;8.608;2024-03-07T08:13:31;101195.00;;;4.31;100.00
45541;BME280;31265;49.680;8.608;2024-03-07T08:16:00;101191.75;;;4.39;100.00
45541;BME280;31265;49.680;8.608;2024-03-07T08:18:29;101187.25;;;4.69;100.00
45541;BME280;31265;49.680;8.608;2024-03-07T08:20:59;101181.97;;;5.11;100.00
45541;BME280;31265;49.680;8.608;2024-03-07T08:23:28;101182.47;;;5.21;100.00
45541;BME280;31265;49.680;8.608;2024-03-07T08:25:59;101181.47;;;5.07;100.00
45541;BME280;31265;49.680;8.608;2024-03-07T08:28:28;101189.88;;;5.54;100.00
45541;BME280;31265;49.680;8.608;2024-03-07T08:30:56;101191.91;;;6.12;100.00
45541;BME280;31265;49.680;8.608;2024-03-07T08:33:26;101191.06;;;5.70;100.00
45541;BME280;31265;49.680;8.608;2024-03-07T08:35:54;101182.00;;;5.86;100.00
45541;BME280;31265;49.680;8.608;2024-03-07T08:38:24;101184.38;;;6.12;100.00
45541;BME280;31265;49.680;8.608;2024-03-07T08:40:53;101184.66;;;6.09;100.00
45541;BME280;31265;49.680;8.608;2024-03-07T08:43:22;101178.22;;;5.95;100.00
45541;BME280;31265;49.680;8.608;2024-03-07T08:45:50;101171.56;;;6.15;100.00
45541;BME280;31265;49.680;8.608;2024-03-07T08:48:19;101174.66;;;6.41;100.00
45541;BME280;31265;49.680;8.608;2024-03-07T08:50:48;101180.19;;;6.41;100.00
45541;BME280;31265;49.680;8.608;2024-03-07T08:53:16;101175.59;;;6.50;100.00
45541;BME280;31265;49.680;8.608;2024-03-07T08:55:47;101169.06;;;6.53;100.00
45541;BME280;31265;49.680;8.608;2024-03-07T08:58:15;101167.81;;;6.54;100.00
45541;BME280;31265;49.680;8.608;2024-03-07T09:00:44;101173.22;;;6.65;100.00
45541;BME280;31265;49.680;8.608;2024-03-07T09:03:14;101165.16;;;6.73;100.00
45541;BME280;31265;49.680;8.608;2024-03-07T09:05:42;101165.28;;;6.56;100.00
45541;BME280;31265;49.680;8.608;2024-03-07T09:08:12;101166.47;;;6.30;100.00
45541;BME280;31265;49.680;8.608;2024-03-07T09:10:43;101174.63;;;6.11;100.00
45541;BME280;31265;49.680;8.608;2024-03-07T09:13:14;101168.41;;;6.41;100.00
45541;BME280;31265;49.680;8.608;2024-03-07T09:15:42;101164.06;;;6.51;100.00
45541;BME280;31265;49.680;8.608;2024-03-07T09:18:11;101162.97;;;6.60;100.00
45541;BME280;31265;49.680;8.608;2024-03-07T09:20:40;101159.44;;;6.65;100.00
45541;BME280;31265;49.680;8.608;2024-03-07T09:23:09;101153.44;;;6.91;100.00
45541;BME280;31265;49.680;8.608;2024-03-07T09:25:39;101159.03;;;6.55;100.00
45541;BME280;31265;49.680;8.608;2024-03-07T09:28:07;101161.66;;;6.97;100.00
45541;BME280;31265;49.680;8.608;2024-03-07T09:30:39;101150.03;;;7.04;100.00
45541;BME280;31265;49.680;8.608;2024-03-07T09:33:07;101151.59;;;7.24;100.00
45541;BME280;31265;49.680;8.608;2024-03-07T09:35:39;101142.16;;;7.38;100.00
45541;BME280;31265;49.680;8.608;2024-03-07T09:38:08;101145.31;;;7.67;100.00
45541;BME280;31265;49.680;8.608;2024-03-07T09:40:36;101157.66;;;7.22;100.00
45541;BME280;31265;49.680;8.608;2024-03-07T09:43:06;101142.22;;;7.51;100.00
45541;BME280;31265;49.680;8.608;2024-03-07T09:45:40;101153.66;;;7.42;100.00
45541;BME280;31265;49.680;8.608;2024-03-07T09:48:14;101141.94;;;7.55;100.00
45541;BME280;31265;49.680;8.608;2024-03-07T09:50:46;101151.16;;;7.20;100.00
45541;BME280;31265;49.680;8.608;2024-03-07T09:53:21;101150.72;;;7.35;100.00
45541;BME280;31265;49.680;8.608;2024-03-07T09:55:54;101154.06;;;7.27;100.00
45541;BME280;31265;49.680;8.608;2024-03-07T09:58:22;101143.81;;;7.47;100.00
45541;BME280;31265;49.680;8.608;2024-03-07T10:00:56;101150.59;;;7.46;100.00
45541;BME280;31265;49.680;8.608;2024-03-07T10:03:29;101151.47;;;7.54;100.00
45541;BME280;31265;49.680;8.608;2024-03-07T10:05:58;101148.47;;;7.33;100.00
45541;BME280;31265;49.680;8.608;2024-03-07T10:08:28;101153.28;;;7.08;100.00
45541;BME280;31265;49.680;8.608;2024-03-07T10:10:57;101146.94;;;7.57;100.00
45541;BME280;31265;49.680;8.608;2024-03-07T10:13:27;101145.22;;;7.53;100.00
45541;BME280;31265;49.680;8.608;2024-03-07T10:15:57;101139.63;;;7.78;100.00
45541;BME280;31265;49.680;8.608;2024-03-07T10:18:27;101136.66;;;7.14;100.00
45541;BME280;31265;49.680;8.608;2024-03-07T10:20:57;101135.19;;;7.31;100.00
45541;BME280;31265;49.680;8.608;2024-03-07T10:23:27;101128.75;;;7.23;100.00
45541;BME280;31265;49.680;8.608;2024-03-07T10:25:56;101122.28;;;7.21;100.00
45541;BME280;31265;49.680;8.608;2024-03-07T10:28:26;101124.09;;;7.37;100.00
45541;BME280;31265;49.680;8.608;2024-03-07T10:30:55;101124.91;;;7.51;100.00
45541;BME280;31265;49.680;8.608;2024-03-07T10:33:27;101121.91;;;7.49;100.00
45541;BME280;31265;49.680;8.608;2024-03-07T10:35:58;101114.59;;;7.51;100.00
45541;BME280;31265;49.680;8.608;2024-03-07T10:38:26;101114.59;;;7.51;100.00
45541;BME280;31265;49.680;8.608;2024-03-07T10:40:55;101109.69;;;7.82;100.00
45541;BME280;31265;49.680;8.608;2024-03-07T10:43:27;101102.31;;;8.23;100.00
45541;BME280;31265;49.680;8.608;2024-03-07T10:45:59;101098.97;;;8.43;100.00
45541;BME280;31265;49.680;8.608;2024-03-07T10:48:38;101092.69;;;8.10;100.00
45541;BME280;31265;49.680;8.608;2024-03-07T10:51:14;101091.97;;;8.55;100.00
45541;BME280;31265;49.680;8.608;2024-03-07T10:53:51;101094.13;;;8.63;100.00
45541;BME280;31265;49.680;8.608;2024-03-07T10:56:47;101092.44;;;9.13;100.00
45541;BME280;31265;49.680;8.608;2024-03-07T10:59:25;101088.41;;;9.00;100.00
45541;BME280;31265;49.680;8.608;2024-03-07T11:01:59;101085.31;;;9.17;100.00
45541;BME280;31265;49.680;8.608;2024-03-07T11:04:36;101082.75;;;8.66;100.00
45541;BME280;31265;49.680;8.608;2024-03-07T11:07:05;101068.63;;;8.37;100.00
45541;BME280;31265;49.680;8.608;2024-03-07T11:09:35;101074.31;;;8.45;100.00
45541;BME280;31265;49.680;8.608;2024-03-07T11:12:05;101072.50;;;8.15;100.00
45541;BME280;31265;49.680;8.608;2024-03-07T11:14:35;101064.47;;;8.63;100.00
45541;BME280;31265;49.680;8.608;2024-03-07T11:17:05;101061.56;;;9.09;100.00
45541;BME280;31265;49.680;8.608;2024-03-07T11:19:37;101060.72;;;9.14;100.00
45541;BME280;31265;49.680;8.608;2024-03-07T11:22:07;101051.66;;;9.13;100.00
45541;BME280;31265;49.680;8.608;2024-03-07T11:24:43;101061.03;;;9.10;100.00
45541;BME280;31265;49.680;8.608;2024-03-07T11:27:12;101050.19;;;8.99;100.00
45541;BME280;31265;49.680;8.608;2024-03-07T11:29:46;101049.50;;;9.19;100.00
45541;BME280;31265;49.680;8.608;2024-03-07T11:32:15;101051.13;;;9.62;100.00
45541;BME280;31265;49.680;8.608;2024-03-07T11:34:45;101039.00;;;9.18;100.00
45541;BME280;31265;49.680;8.608;2024-03-07T11:37:18;101041.53;;;9.02;100.00
45541;BME280;31265;49.680;8.608;2024-03-07T11:39:50;101032.19;;;8.92;100.00
45541;BME280;31265;49.680;8.608;2024-03-07T11:42:25;101028.34;;;9.09;100.00
45541;BME280;31265;49.680;8.608;2024-03-07T11:44:59;101022.91;;;9.51;100.00
45541;BME280;31265;49.680;8.608;2024-03-07T11:47:35;101016.72;;;10.42;100.00
45541;BME280;31265;49.680;8.608;2024-03-07T11:50:08;101023.19;;;10.44;100.00
45541;BME280;31265;49.680;8.608;2024-03-07T11:52:39;101008.84;;;10.53;100.00
45541;BME280;31265;49.680;8.608;2024-03-07T11:55:09;101009.00;;;10.84;100.00
45541;BME280;31265;49.680;8.608;2024-03-07T11:57:38;101013.97;;;10.78;100.00
45541;BME280;31265;49.680;8.608;2024-03-07T12:00:12;100995.19;;;11.07;95.72
45541;BME280;31265;49.680;8.608;2024-03-07T12:02:42;100990.84;;;10.47;100.00
45541;BME280;31265;49.680;8.608;2024-03-07T12:05:13;100991.00;;;10.77;100.00
45541;BME280;31265;49.680;8.608;2024-03-07T12:07:43;100985.13;;;10.81;100.00
45541;BME280;31265;49.680;8.608;2024-03-07T12:10:12;100984.78;;;10.27;100.00
45541;BME280;31265;49.680;8.608;2024-03-07T12:12:42;100986.81;;;10.55;100.00
45541;BME280;31265;49.680;8.608;2024-03-07T12:15:11;100984.16;;;9.93;100.00
45541;BME280;31265;49.680;8.608;2024-03-07T12:17:47;100982.19;;;9.80;100.00
45541;BME280;31265;49.680;8.608;2024-03-07T12:20:20;100980.41;;;10.11;100.00
45541;BME280;31265;49.680;8.608;2024-03-07T12:22:59;100971.16;;;9.87;100.00
45541;BME280;31265;49.680;8.608;2024-03-07T12:25:30;100975.50;;;10.25;100.00
45541;BME280;31265;49.680;8.608;2024-03-07T12:28:06;100969.81;;;10.02;100.00
45541;BME280;31265;49.680;8.608;2024-03-07T12:30:47;100959.81;;;10.27;100.00
45541;BME280;31265;49.680;8.608;2024-03-07T12:33:17;100969.44;;;10.26;100.00
45541;BME280;31265;49.680;8.608;2024-03-07T12:35:48;100968.38;;;10.08;97.95
45541;BME280;31265;49.680;8.608;2024-03-07T12:38:19;100968.53;;;9.82;100.00
45541;BME280;31265;49.680;8.608;2024-03-07T12:41:02;100963.72;;;9.61;100.00
45541;BME280;31265;49.680;8.608;2024-03-07T12:43:33;100967.47;;;9.30;100.00
45541;BME280;31265;49.680;8.608;2024-03-07T12:46:04;100966.78;;;9.50;100.00
45541;BME280;31265;49.680;8.608;2024-03-07T12:48:33;100957.56;;;9.97;100.00
45541;BME280;31265;49.680;8.608;2024-03-07T12:51:09;100960.28;;;9.68;100.00
45541;BME280;31265;49.680;8.608;2024-03-07T12:53:37;100956.97;;;9.70;100.00
45541;BME280;31265;49.680;8.608;2024-03-07T12:56:06;100951.75;;;9.66;97.48
45541;BME280;31265;49.680;8.608;2024-03-07T12:58:36;100949.81;;;9.54;100.00
45541;BME280;31265;49.680;8.608;2024-03-07T13:01:04;100949.22;;;9.47;100.00